createdAt,value
2022-11-29T00:02:56.153Z,48.35
2022-11-29T00:07:57.843Z,47.28
2022-11-29T00:12:59.442Z,51.08
2022-11-29T00:18:01.039Z,52.47
2022-11-29T00:23:02.740Z,41.42
2022-11-29T00:28:04.627Z,61.65
2022-11-29T00:33:06.388Z,66.80
2022-11-29T00:38:08.053Z,67.22
2022-11-29T00:43:09.749Z,33.53
2022-11-29T00:48:11.522Z,30.13
2022-11-29T00:53:13.194Z,27.33
2022-11-29T00:58:15.275Z,27.30
2022-11-29T01:03:17.208Z,29.33
2022-11-29T01:08:19.644Z,26.98
2022-11-29T01:13:21.232Z,35.72
2022-11-29T01:18:23.003Z,36.05
2022-11-29T01:23:25.140Z,20.17
2022-11-29T01:28:27.549Z,22.92
2022-11-29T01:33:29.142Z,25.95
2022-11-29T01:38:31.204Z,20.70
2022-11-29T01:43:34.167Z,22.63
2022-11-29T01:48:35.847Z,18.70
2022-11-29T01:53:38.330Z,19.08
2022-11-29T01:58:40.070Z,19.38
2022-11-29T02:03:42.214Z,20.10
2022-11-29T02:08:44.551Z,16.02
2022-11-29T02:14:17.713Z,19.85
2022-11-29T02:19:53.632Z,19.05
2022-11-29T02:24:55.234Z,19.20
2022-11-29T02:30:14.993Z,21.33
2022-11-29T02:35:48.000Z,18.65
2022-11-29T02:40:49.608Z,13.27
2022-11-29T02:46:20.755Z,20.80
2022-11-29T02:51:32.734Z,30.90
2022-11-29T02:56:46.665Z,22.80
2022-11-29T03:02:19.932Z,24.02
2022-11-29T03:07:40.454Z,21.67
2022-11-29T03:12:46.412Z,14.02
2022-11-29T03:18:09.695Z,18.27
2022-11-29T03:23:19.037Z,19.70
2022-11-29T03:28:38.646Z,19.80
2022-11-29T03:34:05.909Z,15.17
2022-11-29T03:39:17.394Z,16.65
2022-11-29T03:44:22.545Z,17.00
2022-11-29T03:49:31.122Z,16.30
2022-11-29T03:54:46.870Z,19.02
2022-11-29T04:00:01.634Z,15.43
2022-11-29T04:05:34.073Z,13.10
2022-11-29T04:10:54.364Z,17.25
2022-11-29T04:21:33.473Z,16.67
2022-11-29T04:26:50.306Z,14.25
2022-11-29T04:32:13.179Z,15.45
2022-11-29T04:37:24.662Z,14.13
2022-11-29T04:42:37.836Z,12.93
2022-11-29T04:47:57.798Z,12.35
2022-11-29T04:53:17.907Z,14.48
2022-11-29T04:58:38.325Z,12.30
2022-11-29T05:03:47.012Z,14.50
2022-11-29T05:09:16.912Z,12.13
2022-11-29T05:14:36.176Z,12.67
2022-11-29T05:19:57.107Z,12.45
2022-11-29T05:25:34.636Z,13.13
2022-11-29T05:30:55.644Z,15.13
2022-11-29T05:36:43.736Z,22.02
2022-11-29T05:42:14.577Z,30.38
2022-11-29T05:47:29.778Z,20.90
2022-11-29T05:52:41.993Z,13.30
2022-11-29T05:58:14.499Z,13.15
2022-11-29T06:03:24.773Z,13.88
2022-11-29T06:08:50.620Z,18.77
2022-11-29T06:14:08.466Z,12.50
2022-11-29T06:19:43.938Z,16.08
2022-11-29T06:24:51.785Z,14.80
2022-11-29T06:29:59.466Z,13.20
2022-11-29T06:35:07.604Z,12.57
2022-11-29T06:40:12.044Z,14.55
2022-11-29T06:45:16.196Z,11.02
2022-11-29T06:50:20.814Z,11.18
2022-11-29T06:55:41.565Z,12.75
2022-11-29T07:01:08.339Z,12.27
2022-11-29T07:06:22.418Z,11.25
2022-11-29T07:11:24.395Z,12.88
2022-11-29T07:16:31.880Z,14.40
2022-11-29T07:22:02.506Z,10.07
2022-11-29T07:27:11.423Z,10.95
2022-11-29T07:32:25.078Z,10.15
2022-11-29T07:38:01.068Z,9.98
2022-11-29T07:43:20.036Z,11.88
2022-11-29T07:48:21.839Z,13.10
2022-11-29T07:53:24.547Z,11.40
2022-11-29T07:58:26.317Z,14.95
2022-11-29T08:03:29.132Z,24.25
2022-11-29T08:08:30.855Z,16.85
2022-11-29T08:13:32.505Z,12.55
2022-11-29T08:18:38.298Z,15.15
2022-11-29T08:23:39.982Z,13.75
2022-11-29T08:28:41.849Z,13.93
2022-11-29T08:33:44.397Z,12.98
2022-11-29T08:38:46.584Z,10.20
2022-11-29T08:43:48.340Z,13.13
2022-11-29T08:48:49.976Z,13.27
2022-11-29T08:53:52.918Z,11.93
2022-11-29T08:58:54.551Z,12.48
2022-11-29T09:03:59.727Z,12.63
2022-11-29T09:09:01.653Z,14.63
2022-11-29T09:14:08.474Z,12.77
2022-11-29T09:19:10.392Z,13.57
2022-11-29T09:24:12.162Z,13.90
2022-11-29T09:29:16.253Z,12.77
2022-11-29T09:34:21.199Z,11.00
2022-11-29T09:39:22.984Z,12.32
2022-11-29T09:44:45.969Z,11.73
2022-11-29T09:50:25.461Z,10.90
2022-11-29T09:55:35.584Z,12.02
2022-11-29T10:00:46.563Z,12.20
2022-11-29T10:05:54.193Z,11.55
2022-11-29T10:11:09.209Z,11.35
2022-11-29T10:16:19.624Z,10.32
2022-11-29T10:21:25.436Z,9.57
2022-11-29T10:26:33.546Z,11.13
2022-11-29T10:31:42.867Z,14.10
2022-11-29T10:36:55.179Z,10.55
2022-11-29T10:42:01.525Z,10.02
2022-11-29T10:47:10.471Z,11.73
2022-11-29T10:52:19.988Z,14.23
2022-11-29T10:57:22.847Z,9.50
2022-11-29T11:02:24.699Z,14.07
2022-11-29T11:07:33.414Z,14.63
2022-11-29T11:12:36.864Z,10.43
2022-11-29T11:17:40.082Z,10.07
2022-11-29T11:22:41.698Z,11.70
2022-11-29T11:27:46.565Z,15.45
2022-11-29T11:33:07.976Z,14.70
2022-11-29T11:38:17.673Z,11.30
2022-11-29T11:43:21.936Z,15.77
2022-11-29T11:48:24.082Z,13.55
2022-11-29T11:53:35.919Z,14.43
2022-11-29T11:58:43.477Z,11.32
2022-11-29T12:03:49.595Z,11.98
2022-11-29T12:08:55.970Z,10.65
2022-11-29T12:13:59.687Z,12.90
2022-11-29T12:19:11.801Z,10.95
2022-11-29T12:24:21.962Z,9.93
2022-11-29T12:29:28.804Z,12.50
2022-11-29T12:34:46.799Z,12.95
2022-11-29T12:40:07.033Z,9.05
2022-11-29T12:45:23.922Z,10.80
2022-11-29T12:50:28.336Z,13.00
2022-11-29T12:55:45.432Z,15.60
2022-11-29T13:01:15.173Z,9.13
2022-11-29T13:06:41.902Z,9.00
2022-11-29T13:11:55.629Z,10.60
2022-11-29T13:17:01.550Z,16.50
2022-11-29T13:22:16.714Z,12.05
2022-11-29T13:27:25.004Z,12.65
2022-11-29T13:32:40.135Z,16.35
2022-11-29T13:37:55.696Z,11.23
2022-11-29T13:43:20.317Z,8.50
2022-11-29T13:48:28.786Z,7.80
2022-11-29T13:53:48.489Z,9.82
2022-11-29T13:58:54.914Z,9.43
2022-11-29T14:04:07.074Z,11.40
2022-11-29T14:09:41.334Z,7.22
2022-11-29T14:14:53.990Z,11.38
2022-11-29T14:20:30.550Z,10.68
2022-11-29T14:30:57.453Z,13.70
2022-11-29T14:36:38.028Z,12.05
2022-11-29T14:41:55.262Z,18.38
2022-11-29T14:47:15.687Z,13.93
2022-11-29T14:52:47.361Z,13.68
2022-11-29T14:57:54.482Z,18.95
2022-11-29T15:03:15.614Z,12.48
2022-11-29T15:08:20.027Z,13.02
2022-11-29T15:13:59.364Z,11.02
2022-11-29T15:19:35.287Z,15.30
2022-11-29T15:25:13.805Z,12.68
2022-11-29T15:30:42.411Z,6.65
2022-11-29T15:35:49.620Z,8.35
2022-11-29T15:40:53.523Z,13.70
2022-11-29T15:45:57.177Z,12.10
2022-11-29T15:51:01.923Z,13.13
2022-11-29T15:56:11.355Z,14.27
2022-11-29T16:01:21.458Z,22.52
2022-11-29T16:06:39.304Z,15.70
2022-11-29T16:11:41.243Z,20.40
2022-11-29T16:16:46.427Z,13.35
2022-11-29T16:21:59.717Z,11.63
2022-11-29T16:27:02.127Z,13.18
2022-11-29T16:32:25.951Z,19.17
2022-11-29T16:37:35.382Z,16.00
2022-11-29T16:42:37.258Z,20.30
2022-11-29T16:48:00.243Z,23.00
2022-11-29T16:53:35.149Z,20.80
2022-11-29T16:59:16.613Z,23.40
2022-11-29T17:04:00.003Z,20.35
2022-11-29T17:09:01.745Z,24.35
2022-11-29T17:14:03.479Z,20.13
2022-11-29T17:19:05.238Z,23.38
2022-11-29T17:24:14.443Z,20.60
2022-11-29T17:29:17.582Z,20.10
2022-11-29T17:34:19.583Z,19.20
2022-11-29T17:39:22.645Z,24.52
2022-11-29T17:44:24.457Z,14.85
2022-11-29T17:49:26.100Z,22.92
2022-11-29T17:54:27.907Z,18.65
2022-11-29T17:59:29.715Z,19.77
2022-11-29T18:04:31.425Z,16.30
2022-11-29T18:09:33.176Z,18.05
2022-11-29T18:14:36.334Z,16.60
2022-11-29T18:19:38.030Z,18.08
2022-11-29T18:24:43.507Z,18.77
2022-11-29T18:29:54.310Z,16.00
2022-11-29T18:34:56.443Z,15.98
2022-11-29T18:39:58.031Z,20.25
2022-11-29T18:44:59.735Z,21.13
2022-11-29T18:50:02.986Z,23.90
2022-11-29T18:55:07.798Z,23.25
2022-11-29T19:00:12.212Z,20.00
2022-11-29T19:05:13.908Z,17.17
2022-11-29T19:10:15.665Z,15.63
2022-11-29T19:15:17.521Z,15.70
2022-11-29T19:20:19.170Z,15.48
2022-11-29T19:25:20.812Z,31.67
2022-11-29T19:30:22.474Z,34.92
2022-11-29T19:35:24.142Z,29.35
2022-11-29T19:40:25.849Z,23.83
2022-11-29T19:45:27.596Z,15.98
2022-11-29T19:50:29.266Z,16.38
2022-11-29T19:55:31.086Z,14.75
2022-11-29T20:00:32.869Z,20.33
2022-11-29T20:05:34.493Z,15.55
2022-11-29T20:10:36.129Z,15.40
2022-11-29T20:15:37.822Z,16.98
2022-11-29T20:20:40.716Z,15.95
2022-11-29T20:25:48.340Z,15.48
2022-11-29T20:30:50.191Z,13.85
2022-11-29T20:36:04.862Z,18.77
2022-11-29T20:41:19.450Z,12.75
2022-11-29T20:46:22.125Z,15.98
2022-11-29T20:51:33.371Z,18.33
2022-11-29T20:56:35.025Z,18.90
2022-11-29T21:01:36.729Z,14.25
2022-11-29T21:06:39.142Z,16.35
2022-11-29T21:11:41.006Z,15.02
2022-11-29T21:16:42.929Z,11.77
2022-11-29T21:22:05.929Z,15.15
2022-11-29T21:27:14.524Z,16.38
2022-11-29T21:32:24.184Z,16.88
2022-11-29T21:37:30.079Z,12.80
2022-11-29T21:42:32.209Z,14.55
2022-11-29T21:47:33.953Z,10.93
2022-11-29T21:52:35.899Z,10.55
2022-11-29T21:57:38.780Z,14.32
2022-11-29T22:02:41.056Z,13.57
2022-11-29T22:07:43.043Z,10.43
2022-11-29T22:12:51.947Z,8.88
2022-11-29T22:17:56.465Z,11.82
2022-11-29T22:22:58.965Z,8.48
2022-11-29T22:28:00.818Z,9.80
2022-11-29T22:33:02.539Z,11.25
2022-11-29T22:38:04.210Z,10.45
2022-11-29T22:43:05.917Z,12.10
2022-11-29T22:48:07.519Z,9.95
2022-11-29T22:53:09.386Z,13.77
2022-11-29T22:58:10.939Z,13.80
2022-11-29T23:03:12.678Z,10.82
2022-11-29T23:08:14.302Z,13.13
2022-11-29T23:13:16.451Z,13.25
2022-11-29T23:18:18.978Z,11.05
2022-11-29T23:23:20.553Z,8.48
2022-11-29T23:28:22.709Z,6.57
2022-11-29T23:33:25.291Z,9.02
2022-11-29T23:38:27.087Z,10.93
2022-11-29T23:43:31.786Z,6.78
2022-11-29T23:48:33.567Z,9.15
2022-11-29T23:53:35.570Z,7.35
2022-11-29T23:58:38.076Z,7.25
